sensor_id;sensor_type;location;lat;lon;timestamp;P1;durP1;ratioP1;P2;durP2;ratioP2
69203;SDS011;56317;27.658;85.326;2022-07-29T00:00:56;19.80;;;10.13;;
69203;SDS011;56317;27.658;85.326;2022-07-29T00:03:23;17.30;;;9.55;;
69203;SDS011;56317;27.658;85.326;2022-07-29T00:05:50;16.98;;;8.60;;
69203;SDS011;56317;27.658;85.326;2022-07-29T00:08:20;20.50;;;10.07;;
69203;SDS011;56317;27.658;85.326;2022-07-29T00:10:48;21.10;;;10.68;;
69203;SDS011;56317;27.658;85.326;2022-07-29T00:13:18;18.67;;;9.88;;
69203;SDS011;56317;27.658;85.326;2022-07-29T00:15:48;16.27;;;9.18;;
69203;SDS011;56317;27.658;85.326;2022-07-29T00:18:16;16.83;;;9.97;;
69203;SDS011;56317;27.658;85.326;2022-07-29T00:20:43;16.88;;;8.93;;
69203;SDS011;56317;27.658;85.326;2022-07-29T00:23:10;22.98;;;10.55;;
69203;SDS011;56317;27.658;85.326;2022-07-29T00:25:38;19.15;;;9.40;;
69203;SDS011;56317;27.658;85.326;2022-07-29T00:28:05;16.98;;;9.27;;
69203;SDS011;56317;27.658;85.326;2022-07-29T00:30:32;19.52;;;9.82;;
69203;SDS011;56317;27.658;85.326;2022-07-29T00:32:59;17.33;;;10.13;;
69203;SDS011;56317;27.658;85.326;2022-07-29T00:35:27;23.25;;;9.95;;
69203;SDS011;56317;27.658;85.326;2022-07-29T00:38:13;15.05;;;9.32;;
69203;SDS011;56317;27.658;85.326;2022-07-29T00:40:42;19.48;;;9.95;;
69203;SDS011;56317;27.658;85.326;2022-07-29T00:43:11;18.50;;;10.38;;
69203;SDS011;56317;27.658;85.326;2022-07-29T00:45:39;25.60;;;10.93;;
69203;SDS011;56317;27.658;85.326;2022-07-29T00:48:07;15.90;;;9.50;;
69203;SDS011;56317;27.658;85.326;2022-07-29T00:50:35;19.65;;;9.68;;
69203;SDS011;56317;27.658;85.326;2022-07-29T00:53:03;14.48;;;8.07;;
69203;SDS011;56317;27.658;85.326;2022-07-29T00:58:01;16.23;;;8.52;;
69203;SDS011;56317;27.658;85.326;2022-07-29T01:00:28;14.27;;;7.75;;
69203;SDS011;56317;27.658;85.326;2022-07-29T01:02:56;16.88;;;10.07;;
69203;SDS011;56317;27.658;85.326;2022-07-29T01:05:26;19.08;;;10.95;;
69203;SDS011;56317;27.658;85.326;2022-07-29T01:07:54;21.30;;;11.00;;
69203;SDS011;56317;27.658;85.326;2022-07-29T01:10:23;17.20;;;10.07;;
69203;SDS011;56317;27.658;85.326;2022-07-29T01:12:53;20.80;;;9.60;;
69203;SDS011;56317;27.658;85.326;2022-07-29T01:15:23;27.65;;;10.77;;
69203;SDS011;56317;27.658;85.326;2022-07-29T01:23:48;15.57;;;8.60;;
69203;SDS011;56317;27.658;85.326;2022-07-29T01:29:55;19.20;;;8.35;;
69203;SDS011;56317;27.658;85.326;2022-07-29T01:32:33;15.85;;;8.40;;
69203;SDS011;56317;27.658;85.326;2022-07-29T01:35:10;13.63;;;7.30;;
69203;SDS011;56317;27.658;85.326;2022-07-29T01:46:33;16.10;;;7.90;;
69203;SDS011;56317;27.658;85.326;2022-07-29T01:49:10;15.38;;;7.75;;
69203;SDS011;56317;27.658;85.326;2022-07-29T01:52:00;15.93;;;8.85;;
69203;SDS011;56317;27.658;85.326;2022-07-29T01:54:42;14.93;;;8.20;;
69203;SDS011;56317;27.658;85.326;2022-07-29T01:57:13;18.50;;;8.25;;
69203;SDS011;56317;27.658;85.326;2022-07-29T01:59:46;17.85;;;8.30;;
69203;SDS011;56317;27.658;85.326;2022-07-29T02:02:15;20.30;;;8.07;;
69203;SDS011;56317;27.658;85.326;2022-07-29T02:04:44;14.00;;;7.63;;
69203;SDS011;56317;27.658;85.326;2022-07-29T02:07:15;9.10;;;5.80;;
69203;SDS011;56317;27.658;85.326;2022-07-29T02:09:49;10.85;;;6.30;;
69203;SDS011;56317;27.658;85.326;2022-07-29T02:12:18;12.77;;;6.95;;
69203;SDS011;56317;27.658;85.326;2022-07-29T02:14:50;13.55;;;6.80;;
69203;SDS011;56317;27.658;85.326;2022-07-29T02:17:23;12.93;;;6.53;;
69203;SDS011;56317;27.658;85.326;2022-07-29T02:20:12;15.88;;;7.78;;
69203;SDS011;56317;27.658;85.326;2022-07-29T02:22:39;14.68;;;8.70;;
69203;SDS011;56317;27.658;85.326;2022-07-29T02:25:09;13.77;;;8.30;;
69203;SDS011;56317;27.658;85.326;2022-07-29T02:27:38;17.02;;;7.85;;
69203;SDS011;56317;27.658;85.326;2022-07-29T02:30:08;25.88;;;10.65;;
69203;SDS011;56317;27.658;85.326;2022-07-29T02:32:37;21.33;;;7.80;;
69203;SDS011;56317;27.658;85.326;2022-07-29T02:35:07;12.00;;;6.72;;
69203;SDS011;56317;27.658;85.326;2022-07-29T02:37:42;13.52;;;7.03;;
69203;SDS011;56317;27.658;85.326;2022-07-29T02:40:31;14.18;;;6.90;;
69203;SDS011;56317;27.658;85.326;2022-07-29T02:43:01;11.18;;;6.85;;
69203;SDS011;56317;27.658;85.326;2022-07-29T02:45:31;11.75;;;7.28;;
69203;SDS011;56317;27.658;85.326;2022-07-29T02:48:00;11.60;;;7.15;;
69203;SDS011;56317;27.658;85.326;2022-07-29T02:50:42;19.42;;;9.23;;
69203;SDS011;56317;27.658;85.326;2022-07-29T02:53:18;14.82;;;8.35;;
69203;SDS011;56317;27.658;85.326;2022-07-29T02:56:10;15.68;;;9.00;;
69203;SDS011;56317;27.658;85.326;2022-07-29T03:01:12;13.82;;;9.27;;
69203;SDS011;56317;27.658;85.326;2022-07-29T03:03:45;16.60;;;8.07;;
69203;SDS011;56317;27.658;85.326;2022-07-29T03:06:14;14.60;;;8.73;;
69203;SDS011;56317;27.658;85.326;2022-07-29T03:08:43;16.48;;;9.68;;
69203;SDS011;56317;27.658;85.326;2022-07-29T03:11:12;16.27;;;9.95;;
69203;SDS011;56317;27.658;85.326;2022-07-29T03:13:40;13.88;;;8.85;;
69203;SDS011;56317;27.658;85.326;2022-07-29T03:16:08;19.10;;;9.90;;
69203;SDS011;56317;27.658;85.326;2022-07-29T03:18:36;27.60;;;10.70;;
69203;SDS011;56317;27.658;85.326;2022-07-29T03:21:04;22.08;;;10.18;;
69203;SDS011;56317;27.658;85.326;2022-07-29T03:23:31;19.35;;;10.40;;
69203;SDS011;56317;27.658;85.326;2022-07-29T03:25:59;17.65;;;9.93;;
69203;SDS011;56317;27.658;85.326;2022-07-29T03:28:26;18.88;;;10.40;;
69203;SDS011;56317;27.658;85.326;2022-07-29T03:30:53;16.63;;;10.38;;
69203;SDS011;56317;27.658;85.326;2022-07-29T03:33:20;17.23;;;10.85;;
69203;SDS011;56317;27.658;85.326;2022-07-29T03:35:48;17.83;;;10.10;;
69203;SDS011;56317;27.658;85.326;2022-07-29T03:38:15;14.90;;;9.00;;
69203;SDS011;56317;27.658;85.326;2022-07-29T03:40:56;21.30;;;9.38;;
69203;SDS011;56317;27.658;85.326;2022-07-29T03:43:27;16.55;;;10.10;;
69203;SDS011;56317;27.658;85.326;2022-07-29T03:45:58;16.63;;;9.13;;
69203;SDS011;56317;27.658;85.326;2022-07-29T03:48:28;16.55;;;9.57;;
69203;SDS011;56317;27.658;85.326;2022-07-29T03:50:58;14.20;;;8.75;;
69203;SDS011;56317;27.658;85.326;2022-07-29T03:53:26;11.93;;;8.20;;
69203;SDS011;56317;27.658;85.326;2022-07-29T03:55:57;17.50;;;8.73;;
69203;SDS011;56317;27.658;85.326;2022-07-29T03:58:26;13.25;;;8.63;;
69203;SDS011;56317;27.658;85.326;2022-07-29T04:00:53;19.80;;;9.15;;
69203;SDS011;56317;27.658;85.326;2022-07-29T04:03:21;12.35;;;8.80;;
69203;SDS011;56317;27.658;85.326;2022-07-29T04:05:59;13.77;;;8.40;;
69203;SDS011;56317;27.658;85.326;2022-07-29T04:08:34;17.85;;;8.85;;
69203;SDS011;56317;27.658;85.326;2022-07-29T04:11:01;14.18;;;8.38;;
69203;SDS011;56317;27.658;85.326;2022-07-29T04:13:30;10.80;;;6.30;;
69203;SDS011;56317;27.658;85.326;2022-07-29T04:15:58;13.50;;;7.97;;
69203;SDS011;56317;27.658;85.326;2022-07-29T04:18:25;12.48;;;8.05;;
69203;SDS011;56317;27.658;85.326;2022-07-29T04:20:52;10.75;;;7.30;;
69203;SDS011;56317;27.658;85.326;2022-07-29T04:23:20;12.93;;;8.18;;
69203;SDS011;56317;27.658;85.326;2022-07-29T04:25:47;11.57;;;7.68;;
69203;SDS011;56317;27.658;85.326;2022-07-29T04:28:14;12.15;;;8.32;;
69203;SDS011;56317;27.658;85.326;2022-07-29T04:30:41;11.45;;;8.23;;
69203;SDS011;56317;27.658;85.326;2022-07-29T04:33:08;14.50;;;8.68;;
69203;SDS011;56317;27.658;85.326;2022-07-29T04:35:36;13.15;;;7.55;;
69203;SDS011;56317;27.658;85.326;2022-07-29T04:38:04;16.58;;;7.60;;
69203;SDS011;56317;27.658;85.326;2022-07-29T04:40:32;15.18;;;7.65;;
69203;SDS011;56317;27.658;85.326;2022-07-29T04:43:00;13.50;;;7.45;;
69203;SDS011;56317;27.658;85.326;2022-07-29T04:45:28;11.80;;;7.82;;
69203;SDS011;56317;27.658;85.326;2022-07-29T04:47:55;13.05;;;7.53;;
69203;SDS011;56317;27.658;85.326;2022-07-29T04:50:22;15.15;;;7.82;;
69203;SDS011;56317;27.658;85.326;2022-07-29T04:52:49;9.13;;;6.00;;
69203;SDS011;56317;27.658;85.326;2022-07-29T04:55:17;10.35;;;6.28;;
69203;SDS011;56317;27.658;85.326;2022-07-29T04:57:44;9.02;;;6.10;;
69203;SDS011;56317;27.658;85.326;2022-07-29T05:00:11;11.68;;;6.07;;
69203;SDS011;56317;27.658;85.326;2022-07-29T05:02:39;7.90;;;5.65;;
69203;SDS011;56317;27.658;85.326;2022-07-29T05:05:06;9.98;;;6.53;;
69203;SDS011;56317;27.658;85.326;2022-07-29T05:07:33;11.90;;;6.10;;
69203;SDS011;56317;27.658;85.326;2022-07-29T05:10:01;10.32;;;6.65;;
69203;SDS011;56317;27.658;85.326;2022-07-29T05:12:28;11.00;;;6.25;;
69203;SDS011;56317;27.658;85.326;2022-07-29T05:14:55;11.40;;;6.47;;
69203;SDS011;56317;27.658;85.326;2022-07-29T05:17:23;11.27;;;6.90;;
69203;SDS011;56317;27.658;85.326;2022-07-29T05:19:50;9.82;;;6.53;;
69203;SDS011;56317;27.658;85.326;2022-07-29T05:22:20;11.55;;;6.82;;
69203;SDS011;56317;27.658;85.326;2022-07-29T05:24:47;10.45;;;7.00;;
69203;SDS011;56317;27.658;85.326;2022-07-29T05:27:15;10.07;;;6.75;;
69203;SDS011;56317;27.658;85.326;2022-07-29T05:29:43;8.23;;;5.63;;
69203;SDS011;56317;27.658;85.326;2022-07-29T05:32:11;11.00;;;6.30;;
69203;SDS011;56317;27.658;85.326;2022-07-29T05:34:38;10.13;;;6.95;;
69203;SDS011;56317;27.658;85.326;2022-07-29T05:37:06;10.35;;;7.47;;
69203;SDS011;56317;27.658;85.326;2022-07-29T05:39:33;10.10;;;7.07;;
69203;SDS011;56317;27.658;85.326;2022-07-29T05:42:01;9.88;;;6.20;;
69203;SDS011;56317;27.658;85.326;2022-07-29T05:44:28;13.02;;;6.25;;
69203;SDS011;56317;27.658;85.326;2022-07-29T05:46:55;9.20;;;6.28;;
69203;SDS011;56317;27.658;85.326;2022-07-29T05:49:22;9.60;;;6.57;;
69203;SDS011;56317;27.658;85.326;2022-07-29T05:51:49;11.43;;;6.10;;
69203;SDS011;56317;27.658;85.326;2022-07-29T05:54:16;9.38;;;5.85;;
69203;SDS011;56317;27.658;85.326;2022-07-29T05:56:46;15.55;;;6.30;;
69203;SDS011;56317;27.658;85.326;2022-07-29T05:59:14;8.73;;;6.20;;
69203;SDS011;56317;27.658;85.326;2022-07-29T06:01:41;11.10;;;5.97;;
69203;SDS011;56317;27.658;85.326;2022-07-29T06:04:08;8.57;;;5.63;;
69203;SDS011;56317;27.658;85.326;2022-07-29T06:06:36;10.23;;;5.55;;
69203;SDS011;56317;27.658;85.326;2022-07-29T06:09:03;9.15;;;5.80;;
69203;SDS011;56317;27.658;85.326;2022-07-29T06:11:30;12.45;;;6.35;;
69203;SDS011;56317;27.658;85.326;2022-07-29T06:13:58;9.43;;;5.03;;
69203;SDS011;56317;27.658;85.326;2022-07-29T06:16:25;9.65;;;5.22;;
69203;SDS011;56317;27.658;85.326;2022-07-29T06:18:52;8.57;;;5.30;;
69203;SDS011;56317;27.658;85.326;2022-07-29T06:21:19;8.60;;;5.07;;
69203;SDS011;56317;27.658;85.326;2022-07-29T06:23:46;8.88;;;5.65;;
69203;SDS011;56317;27.658;85.326;2022-07-29T06:26:13;9.73;;;5.88;;
69203;SDS011;56317;27.658;85.326;2022-07-29T06:28:41;10.10;;;7.30;;
69203;SDS011;56317;27.658;85.326;2022-07-29T06:31:08;8.27;;;5.45;;
69203;SDS011;56317;27.658;85.326;2022-07-29T06:33:36;12.15;;;5.65;;
69203;SDS011;56317;27.658;85.326;2022-07-29T06:36:04;8.65;;;5.82;;
69203;SDS011;56317;27.658;85.326;2022-07-29T06:38:32;8.63;;;5.28;;
69203;SDS011;56317;27.658;85.326;2022-07-29T06:41:00;6.35;;;4.75;;
69203;SDS011;56317;27.658;85.326;2022-07-29T06:43:36;9.57;;;5.28;;
69203;SDS011;56317;27.658;85.326;2022-07-29T06:46:10;8.27;;;5.13;;
69203;SDS011;56317;27.658;85.326;2022-07-29T06:48:39;8.93;;;4.78;;
69203;SDS011;56317;27.658;85.326;2022-07-29T06:51:08;7.45;;;4.32;;
69203;SDS011;56317;27.658;85.326;2022-07-29T06:53:42;8.48;;;5.00;;
69203;SDS011;56317;27.658;85.326;2022-07-29T06:56:09;9.13;;;4.95;;
69203;SDS011;56317;27.658;85.326;2022-07-29T06:58:39;8.02;;;5.43;;
69203;SDS011;56317;27.658;85.326;2022-07-29T07:01:06;8.68;;;5.57;;
69203;SDS011;56317;27.658;85.326;2022-07-29T07:03:33;8.70;;;5.82;;
69203;SDS011;56317;27.658;85.326;2022-07-29T07:06:01;12.60;;;5.50;;
69203;SDS011;56317;27.658;85.326;2022-07-29T07:08:28;10.95;;;5.40;;
69203;SDS011;56317;27.658;85.326;2022-07-29T07:10:56;10.48;;;5.43;;
69203;SDS011;56317;27.658;85.326;2022-07-29T07:13:23;12.93;;;5.47;;
69203;SDS011;56317;27.658;85.326;2022-07-29T07:15:50;9.18;;;5.03;;
69203;SDS011;56317;27.658;85.326;2022-07-29T07:18:18;13.40;;;5.50;;
69203;SDS011;56317;27.658;85.326;2022-07-29T07:20:45;9.60;;;5.40;;
69203;SDS011;56317;27.658;85.326;2022-07-29T07:23:13;8.95;;;6.03;;
69203;SDS011;56317;27.658;85.326;2022-07-29T07:25:40;10.10;;;6.78;;
69203;SDS011;56317;27.658;85.326;2022-07-29T07:28:07;10.45;;;5.47;;
69203;SDS011;56317;27.658;85.326;2022-07-29T07:30:34;8.85;;;4.85;;
69203;SDS011;56317;27.658;85.326;2022-07-29T07:33:02;11.27;;;4.22;;
69203;SDS011;56317;27.658;85.326;2022-07-29T07:35:30;9.05;;;4.68;;
69203;SDS011;56317;27.658;85.326;2022-07-29T07:37:57;8.13;;;4.55;;
69203;SDS011;56317;27.658;85.326;2022-07-29T07:40:24;10.73;;;6.13;;
69203;SDS011;56317;27.658;85.326;2022-07-29T07:42:51;8.95;;;5.53;;
69203;SDS011;56317;27.658;85.326;2022-07-29T07:45:19;10.77;;;5.43;;
69203;SDS011;56317;27.658;85.326;2022-07-29T07:47:46;6.57;;;4.63;;
69203;SDS011;56317;27.658;85.326;2022-07-29T07:50:13;8.43;;;4.78;;
69203;SDS011;56317;27.658;85.326;2022-07-29T07:52:52;9.70;;;6.77;;
69203;SDS011;56317;27.658;85.326;2022-07-29T07:55:23;9.60;;;6.53;;
69203;SDS011;56317;27.658;85.326;2022-07-29T07:57:51;8.32;;;6.03;;
69203;SDS011;56317;27.658;85.326;2022-07-29T08:00:18;9.40;;;5.53;;
69203;SDS011;56317;27.658;85.326;2022-07-29T08:02:46;13.80;;;6.53;;
69203;SDS011;56317;27.658;85.326;2022-07-29T08:05:13;9.48;;;5.57;;
69203;SDS011;56317;27.658;85.326;2022-07-29T08:07:44;8.05;;;5.45;;
69203;SDS011;56317;27.658;85.326;2022-07-29T08:10:13;12.35;;;5.80;;
69203;SDS011;56317;27.658;85.326;2022-07-29T08:13:06;10.37;;;6.63;;
69203;SDS011;56317;27.658;85.326;2022-07-29T08:15:34;9.02;;;5.63;;
69203;SDS011;56317;27.658;85.326;2022-07-29T08:18:05;10.10;;;5.15;;
69203;SDS011;56317;27.658;85.326;2022-07-29T08:20:32;12.02;;;6.38;;
69203;SDS011;56317;27.658;85.326;2022-07-29T08:23:01;9.60;;;5.55;;
69203;SDS011;56317;27.658;85.326;2022-07-29T08:25:29;7.13;;;4.70;;
69203;SDS011;56317;27.658;85.326;2022-07-29T08:27:57;9.48;;;4.00;;
69203;SDS011;56317;27.658;85.326;2022-07-29T08:30:24;7.82;;;4.40;;
69203;SDS011;56317;27.658;85.326;2022-07-29T08:32:55;9.75;;;4.28;;
69203;SDS011;56317;27.658;85.326;2022-07-29T08:35:23;7.45;;;3.50;;
69203;SDS011;56317;27.658;85.326;2022-07-29T08:37:51;5.65;;;2.83;;
69203;SDS011;56317;27.658;85.326;2022-07-29T08:40:19;7.90;;;3.80;;
69203;SDS011;56317;27.658;85.326;2022-07-29T08:42:48;6.03;;;3.30;;
69203;SDS011;56317;27.658;85.326;2022-07-29T08:45:16;9.82;;;5.57;;
69203;SDS011;56317;27.658;85.326;2022-07-29T08:47:44;10.18;;;4.68;;
69203;SDS011;56317;27.658;85.326;2022-07-29T08:50:11;8.52;;;4.93;;
69203;SDS011;56317;27.658;85.326;2022-07-29T08:52:40;7.60;;;4.68;;
69203;SDS011;56317;27.658;85.326;2022-07-29T08:55:09;9.85;;;4.82;;
69203;SDS011;56317;27.658;85.326;2022-07-29T08:57:38;10.40;;;5.15;;
69203;SDS011;56317;27.658;85.326;2022-07-29T09:00:07;9.75;;;6.60;;
69203;SDS011;56317;27.658;85.326;2022-07-29T09:02:39;10.63;;;4.00;;
69203;SDS011;56317;27.658;85.326;2022-07-29T09:05:11;9.93;;;4.88;;
69203;SDS011;56317;27.658;85.326;2022-07-29T09:07:39;17.05;;;5.45;;
69203;SDS011;56317;27.658;85.326;2022-07-29T09:10:08;11.07;;;5.72;;
69203;SDS011;56317;27.658;85.326;2022-07-29T09:12:36;7.63;;;4.13;;
69203;SDS011;56317;27.658;85.326;2022-07-29T09:15:03;7.70;;;4.47;;
69203;SDS011;56317;27.658;85.326;2022-07-29T09:17:41;10.35;;;4.80;;
69203;SDS011;56317;27.658;85.326;2022-07-29T09:20:10;7.57;;;4.57;;
69203;SDS011;56317;27.658;85.326;2022-07-29T09:22:39;7.73;;;4.23;;
69203;SDS011;56317;27.658;85.326;2022-07-29T09:25:07;7.90;;;4.32;;
69203;SDS011;56317;27.658;85.326;2022-07-29T09:27:34;5.85;;;3.80;;
69203;SDS011;56317;27.658;85.326;2022-07-29T09:30:05;7.82;;;3.90;;
69203;SDS011;56317;27.658;85.326;2022-07-29T09:32:55;10.07;;;4.35;;
69203;SDS011;56317;27.658;85.326;2022-07-29T09:35:26;6.07;;;3.90;;
69203;SDS011;56317;27.658;85.326;2022-07-29T09:37:55;8.82;;;3.95;;
69203;SDS011;56317;27.658;85.326;2022-07-29T09:40:24;7.38;;;4.63;;
69203;SDS011;56317;27.658;85.326;2022-07-29T09:42:52;6.57;;;3.73;;
69203;SDS011;56317;27.658;85.326;2022-07-29T09:45:32;15.25;;;6.47;;
69203;SDS011;56317;27.658;85.326;2022-07-29T09:48:12;8.48;;;5.65;;
69203;SDS011;56317;27.658;85.326;2022-07-29T09:50:45;10.73;;;6.72;;
69203;SDS011;56317;27.658;85.326;2022-07-29T09:56:05;12.15;;;8.27;;
69203;SDS011;56317;27.658;85.326;2022-07-29T09:58:32;14.63;;;8.88;;
69203;SDS011;56317;27.658;85.326;2022-07-29T10:01:00;17.48;;;10.15;;
69203;SDS011;56317;27.658;85.326;2022-07-29T10:03:27;15.55;;;9.93;;
69203;SDS011;56317;27.658;85.326;2022-07-29T10:06:11;15.30;;;9.55;;
69203;SDS011;56317;27.658;85.326;2022-07-29T10:08:39;14.55;;;9.52;;
69203;SDS011;56317;27.658;85.326;2022-07-29T10:11:11;15.27;;;10.50;;
69203;SDS011;56317;27.658;85.326;2022-07-29T10:13:41;13.52;;;8.80;;
69203;SDS011;56317;27.658;85.326;2022-07-29T10:16:09;13.43;;;8.52;;
69203;SDS011;56317;27.658;85.326;2022-07-29T10:18:38;13.43;;;8.60;;
69203;SDS011;56317;27.658;85.326;2022-07-29T10:21:06;13.70;;;8.60;;
69203;SDS011;56317;27.658;85.326;2022-07-29T10:23:34;12.73;;;8.60;;
69203;SDS011;56317;27.658;85.326;2022-07-29T10:26:03;16.33;;;9.77;;
69203;SDS011;56317;27.658;85.326;2022-07-29T10:28:30;14.88;;;9.10;;
69203;SDS011;56317;27.658;85.326;2022-07-29T10:31:03;14.57;;;9.15;;
69203;SDS011;56317;27.658;85.326;2022-07-29T10:48:04;17.23;;;9.55;;
69203;SDS011;56317;27.658;85.326;2022-07-29T10:53:22;14.77;;;8.98;;
69203;SDS011;56317;27.658;85.326;2022-07-29T10:55:51;16.55;;;8.93;;
69203;SDS011;56317;27.658;85.326;2022-07-29T10:58:19;16.52;;;9.52;;
69203;SDS011;56317;27.658;85.326;2022-07-29T11:00:54;16.27;;;9.00;;
69203;SDS011;56317;27.658;85.326;2022-07-29T11:03:42;13.60;;;8.23;;
69203;SDS011;56317;27.658;85.326;2022-07-29T11:06:15;15.90;;;8.73;;
69203;SDS011;56317;27.658;85.326;2022-07-29T11:08:42;14.95;;;8.75;;
69203;SDS011;56317;27.658;85.326;2022-07-29T11:13:49;15.50;;;8.68;;
69203;SDS011;56317;27.658;85.326;2022-07-29T11:16:19;17.17;;;9.57;;
69203;SDS011;56317;27.658;85.326;2022-07-29T11:21:43;18.55;;;9.63;;
69203;SDS011;56317;27.658;85.326;2022-07-29T11:24:19;25.55;;;13.25;;
69203;SDS011;56317;27.658;85.326;2022-07-29T11:32:20;17.83;;;10.70;;
69203;SDS011;56317;27.658;85.326;2022-07-29T11:34:48;16.80;;;9.43;;
69203;SDS011;56317;27.658;85.326;2022-07-29T11:37:36;14.60;;;9.35;;
69203;SDS011;56317;27.658;85.326;2022-07-29T11:45:12;18.35;;;9.75;;
69203;SDS011;56317;27.658;85.326;2022-07-29T11:47:51;15.93;;;9.77;;
69203;SDS011;56317;27.658;85.326;2022-07-29T11:50:38;16.20;;;9.88;;
69203;SDS011;56317;27.658;85.326;2022-07-29T11:53:12;24.83;;;12.88;;
69203;SDS011;56317;27.658;85.326;2022-07-29T11:55:40;18.70;;;9.50;;
69203;SDS011;56317;27.658;85.326;2022-07-29T11:58:07;18.50;;;8.27;;
69203;SDS011;56317;27.658;85.326;2022-07-29T12:00:36;18.85;;;7.88;;
69203;SDS011;56317;27.658;85.326;2022-07-29T12:03:10;21.15;;;9.80;;
69203;SDS011;56317;27.658;85.326;2022-07-29T12:05:49;12.27;;;7.75;;
69203;SDS011;56317;27.658;85.326;2022-07-29T12:08:20;17.25;;;9.02;;
69203;SDS011;56317;27.658;85.326;2022-07-29T12:10:51;17.55;;;9.70;;
69203;SDS011;56317;27.658;85.326;2022-07-29T12:13:19;20.20;;;11.00;;
69203;SDS011;56317;27.658;85.326;2022-07-29T12:15:56;21.10;;;11.60;;
69203;SDS011;56317;27.658;85.326;2022-07-29T12:18:25;27.33;;;10.98;;
69203;SDS011;56317;27.658;85.326;2022-07-29T12:20:59;18.10;;;9.43;;
69203;SDS011;56317;27.658;85.326;2022-07-29T12:23:31;15.05;;;8.93;;
69203;SDS011;56317;27.658;85.326;2022-07-29T12:25:58;20.35;;;9.30;;
69203;SDS011;56317;27.658;85.326;2022-07-29T12:28:29;17.77;;;9.40;;
69203;SDS011;56317;27.658;85.326;2022-07-29T12:31:04;18.52;;;10.52;;
69203;SDS011;56317;27.658;85.326;2022-07-29T12:33:38;20.35;;;10.10;;
69203;SDS011;56317;27.658;85.326;2022-07-29T12:36:05;18.98;;;9.23;;
69203;SDS011;56317;27.658;85.326;2022-07-29T12:38:36;16.42;;;8.85;;
69203;SDS011;56317;27.658;85.326;2022-07-29T12:41:06;15.63;;;8.73;;
69203;SDS011;56317;27.658;85.326;2022-07-29T12:43:34;14.05;;;8.63;;
69203;SDS011;56317;27.658;85.326;2022-07-29T12:46:14;12.88;;;7.78;;
69203;SDS011;56317;27.658;85.326;2022-07-29T12:48:49;13.30;;;6.93;;
69203;SDS011;56317;27.658;85.326;2022-07-29T12:54:26;15.13;;;7.57;;
69203;SDS011;56317;27.658;85.326;2022-07-29T12:57:02;12.70;;;8.27;;
69203;SDS011;56317;27.658;85.326;2022-07-29T12:59:29;14.35;;;8.10;;
69203;SDS011;56317;27.658;85.326;2022-07-29T13:01:56;17.45;;;9.45;;
69203;SDS011;56317;27.658;85.326;2022-07-29T13:04:28;20.10;;;11.55;;
69203;SDS011;56317;27.658;85.326;2022-07-29T13:07:01;20.63;;;11.15;;
69203;SDS011;56317;27.658;85.326;2022-07-29T13:09:41;18.60;;;9.85;;
69203;SDS011;56317;27.658;85.326;2022-07-29T13:12:13;22.30;;;9.45;;
69203;SDS011;56317;27.658;85.326;2022-07-29T13:14:45;16.83;;;7.97;;
69203;SDS011;56317;27.658;85.326;2022-07-29T13:17:15;12.80;;;7.22;;
69203;SDS011;56317;27.658;85.326;2022-07-29T13:19:49;13.85;;;7.70;;
69203;SDS011;56317;27.658;85.326;2022-07-29T13:22:30;11.85;;;7.53;;
69203;SDS011;56317;27.658;85.326;2022-07-29T13:24:58;16.38;;;7.78;;
69203;SDS011;56317;27.658;85.326;2022-07-29T13:27:32;12.60;;;7.75;;
69203;SDS011;56317;27.658;85.326;2022-07-29T13:30:03;13.73;;;7.57;;
69203;SDS011;56317;27.658;85.326;2022-07-29T13:32:34;11.73;;;7.55;;
69203;SDS011;56317;27.658;85.326;2022-07-29T13:35:04;15.05;;;7.78;;
69203;SDS011;56317;27.658;85.326;2022-07-29T13:37:33;16.17;;;7.85;;
69203;SDS011;56317;27.658;85.326;2022-07-29T13:40:04;14.35;;;8.27;;
69203;SDS011;56317;27.658;85.326;2022-07-29T13:42:32;14.48;;;7.97;;
69203;SDS011;56317;27.658;85.326;2022-07-29T13:45:00;17.77;;;7.80;;
69203;SDS011;56317;27.658;85.326;2022-07-29T13:47:28;15.55;;;7.95;;
69203;SDS011;56317;27.658;85.326;2022-07-29T13:49:55;16.00;;;7.53;;
69203;SDS011;56317;27.658;85.326;2022-07-29T13:52:22;13.00;;;6.90;;
69203;SDS011;56317;27.658;85.326;2022-07-29T13:54:49;12.68;;;6.45;;
69203;SDS011;56317;27.658;85.326;2022-07-29T13:57:16;13.75;;;7.57;;
69203;SDS011;56317;27.658;85.326;2022-07-29T13:59:43;15.10;;;8.40;;
69203;SDS011;56317;27.658;85.326;2022-07-29T14:02:11;16.55;;;9.13;;
69203;SDS011;56317;27.658;85.326;2022-07-29T14:04:39;13.80;;;8.75;;
69203;SDS011;56317;27.658;85.326;2022-07-29T14:07:06;14.00;;;8.73;;
69203;SDS011;56317;27.658;85.326;2022-07-29T14:09:33;16.67;;;9.07;;
69203;SDS011;56317;27.658;85.326;2022-07-29T14:12:00;16.10;;;8.75;;
69203;SDS011;56317;27.658;85.326;2022-07-29T14:14:28;15.05;;;9.02;;
69203;SDS011;56317;27.658;85.326;2022-07-29T14:16:57;19.02;;;11.13;;
69203;SDS011;56317;27.658;85.326;2022-07-29T14:19:24;17.42;;;10.70;;
69203;SDS011;56317;27.658;85.326;2022-07-29T14:21:51;16.63;;;9.30;;
69203;SDS011;56317;27.658;85.326;2022-07-29T14:24:18;14.52;;;9.02;;
69203;SDS011;56317;27.658;85.326;2022-07-29T14:26:46;15.95;;;9.15;;
69203;SDS011;56317;27.658;85.326;2022-07-29T14:29:13;15.23;;;8.90;;
69203;SDS011;56317;27.658;85.326;2022-07-29T14:31:40;22.80;;;9.35;;
69203;SDS011;56317;27.658;85.326;2022-07-29T14:34:09;13.43;;;7.53;;
69203;SDS011;56317;27.658;85.326;2022-07-29T14:36:36;17.00;;;8.25;;
69203;SDS011;56317;27.658;85.326;2022-07-29T14:39:03;14.15;;;8.32;;
69203;SDS011;56317;27.658;85.326;2022-07-29T14:41:30;16.40;;;9.48;;
69203;SDS011;56317;27.658;85.326;2022-07-29T14:43:58;16.40;;;9.93;;
69203;SDS011;56317;27.658;85.326;2022-07-29T14:46:28;16.55;;;10.20;;
69203;SDS011;56317;27.658;85.326;2022-07-29T14:48:55;17.63;;;9.88;;
69203;SDS011;56317;27.658;85.326;2022-07-29T14:51:22;20.30;;;10.52;;
69203;SDS011;56317;27.658;85.326;2022-07-29T14:53:49;15.90;;;9.55;;
69203;SDS011;56317;27.658;85.326;2022-07-29T14:56:16;19.17;;;10.15;;
69203;SDS011;56317;27.658;85.326;2022-07-29T14:58:43;20.15;;;10.90;;
69203;SDS011;56317;27.658;85.326;2022-07-29T15:01:11;21.42;;;10.85;;
69203;SDS011;56317;27.658;85.326;2022-07-29T15:03:38;21.70;;;10.82;;
69203;SDS011;56317;27.658;85.326;2022-07-29T15:06:05;23.85;;;12.80;;
69203;SDS011;56317;27.658;85.326;2022-07-29T15:08:32;15.25;;;9.75;;
69203;SDS011;56317;27.658;85.326;2022-07-29T15:10:59;17.63;;;10.00;;
69203;SDS011;56317;27.658;85.326;2022-07-29T15:13:26;19.98;;;11.38;;
69203;SDS011;56317;27.658;85.326;2022-07-29T15:15:54;21.75;;;11.20;;
69203;SDS011;56317;27.658;85.326;2022-07-29T15:18:22;19.08;;;9.85;;
69203;SDS011;56317;27.658;85.326;2022-07-29T15:20:49;17.45;;;9.68;;
69203;SDS011;56317;27.658;85.326;2022-07-29T15:23:16;16.80;;;10.05;;
69203;SDS011;56317;27.658;85.326;2022-07-29T15:25:43;15.88;;;9.55;;
69203;SDS011;56317;27.658;85.326;2022-07-29T15:28:12;18.10;;;10.73;;
69203;SDS011;56317;27.658;85.326;2022-07-29T15:30:39;20.45;;;11.48;;
69203;SDS011;56317;27.658;85.326;2022-07-29T15:33:06;15.93;;;9.85;;
69203;SDS011;56317;27.658;85.326;2022-07-29T15:35:35;16.77;;;10.48;;
69203;SDS011;56317;27.658;85.326;2022-07-29T15:38:03;16.65;;;9.57;;
69203;SDS011;56317;27.658;85.326;2022-07-29T15:40:30;17.55;;;9.13;;